Time;durP1;ratioP1;P1;durP2;ratioP2;P2;SDS_P1;SDS_P2;PMS_P1;PMS_P2;Temp;Humidity;BMP_temperature;BMP_pressure;BME280_temperature;BME280_humidity;BME280_pressure;Samples;Min_cycle;Max_cycle;Signal;HPM_P1;HPM_P2
2022/05/28 00:01:05;;;;;;;0.80;0.80;;;15.40;59.20;14.80;98678.00;;;;5134234;28;20221;-72
2022/05/28 00:03:32;;;;;;;0.53;0.53;;;15.30;56.90;14.70;98674.00;;;;5134147;28;20217;-72
2022/05/28 00:05:59;;;;;;;0.80;0.80;;;15.30;57.60;14.60;98668.00;;;;5134239;28;20209;-73
2022/05/28 00:08:25;;;;;;;0.93;0.93;;;15.20;58.00;14.80;98672.00;;;;5134217;28;20200;-73
2022/05/28 00:10:56;;;;;;;0.77;0.77;;;15.20;58.00;14.60;98675.00;;;;5134107;28;20263;-73
2022/05/28 00:13:23;;;;;;;0.70;0.70;;;15.10;58.30;14.70;98660.00;;;;5134032;28;20209;-73
2022/05/28 00:15:52;;;;;;;0.90;0.90;;;15.20;58.30;14.60;98687.00;;;;5134262;28;20201;-72
2022/05/28 00:18:19;;;;;;;0.50;0.50;;;15.10;58.80;14.60;98689.00;;;;5134087;28;20273;-72
2022/05/28 00:20:46;;;;;;;13.90;0.80;;;15.20;59.20;14.50;98697.00;;;;5116002;28;20524;-73
2022/05/28 00:23:13;;;;;;;0.70;0.70;;;15.10;58.60;14.60;98691.00;;;;5135053;27;20232;-72
2022/05/28 00:25:39;;;;;;;1.33;0.80;;;15.10;58.30;14.60;98692.00;;;;5137548;28;20632;-73
2022/05/28 00:28:06;;;;;;;0.70;0.70;;;15.10;58.30;14.60;98695.00;;;;5137500;28;20633;-73
2022/05/28 00:30:33;;;;;;;0.60;0.60;;;15.10;58.40;14.60;98693.00;;;;5137560;28;20288;-73
2022/05/28 00:32:59;;;;;;;0.50;0.50;;;15.10;58.20;14.60;98692.00;;;;5137450;28;20209;-73
2022/05/28 00:35:28;;;;;;;1.40;0.70;;;;;14.60;98692.00;;;;5137319;28;20221;-72
2022/05/28 00:37:55;;;;;;;1.97;1.07;;;15.10;56.50;14.60;98693.00;;;;5137516;28;20272;-73
2022/05/28 00:40:26;;;;;;;1.73;0.70;;;15.10;55.30;14.50;98688.00;;;;5137285;28;20201;-73
2022/05/28 00:42:57;;;;;;;0.50;0.50;;;15.00;56.00;14.60;98699.00;;;;5137192;28;20267;-73
2022/05/28 00:45:23;;;;;;;0.60;0.60;;;15.10;56.50;14.40;98707.00;;;;5137274;28;20219;-73
2022/05/28 00:47:57;;;;;;;0.40;0.40;;;15.00;55.40;14.30;98705.00;;;;5119037;28;20229;-72
2022/05/28 00:50:24;;;;;;;0.60;0.60;;;14.90;55.00;14.30;98717.00;;;;5137220;28;20200;-73
2022/05/28 00:52:54;;;;;;;0.50;0.50;;;14.80;54.90;14.30;98717.00;;;;5137147;28;20197;-73
2022/05/28 00:55:21;;;;;;;0.60;0.60;;;14.80;54.70;14.20;98703.00;;;;5137101;28;20209;-72
2022/05/28 00:57:49;;;;;;;1.60;1.50;;;14.80;54.50;14.20;98702.00;;;;5136993;28;20574;-72
2022/05/28 01:00:19;;;;;;;0.80;0.80;;;14.70;54.40;14.10;98702.00;;;;5136869;28;20704;-72
2022/05/28 01:02:54;;;;;;;0.70;0.70;;;14.70;53.20;14.00;98679.00;;;;5136708;28;20217;-73
2022/05/28 01:05:34;;;;;;;1.00;0.90;;;14.60;53.60;14.10;98706.00;;;;5136830;28;20197;-72
2022/05/28 01:08:15;;;;;;;0.50;0.50;;;14.60;53.40;14.00;98710.00;;;;5118753;28;20227;-72
2022/05/28 01:10:52;;;;;;;0.50;0.50;;;14.50;53.40;14.10;98709.00;;;;5136894;28;20349;-73
2022/05/28 01:13:31;;;;;;;0.97;0.90;;;14.60;52.70;13.90;98713.00;;;;5136675;28;20559;-72
2022/05/28 01:16:03;;;;;;;0.50;0.50;;;14.50;53.00;14.00;98703.00;;;;5136682;28;20209;-72
2022/05/28 01:18:35;;;;;;;0.60;0.60;;;14.50;52.70;13.90;98704.00;;;;5136574;28;20354;-72
2022/05/28 01:21:08;;;;;;;0.70;0.70;;;14.40;52.70;13.80;98682.00;;;;5136850;28;20353;-72
2022/05/28 01:23:54;;;;;;;0.60;0.60;;;14.40;51.70;13.70;98708.00;;;;5118411;28;20225;-72
2022/05/28 01:26:33;;;;;;;0.60;0.60;;;14.30;52.60;13.70;98701.00;;;;5136530;28;20196;-72
2022/05/28 01:29:07;;;;;;;0.60;0.60;;;14.30;52.00;13.70;98700.00;;;;5136517;28;20628;-73
2022/05/28 01:31:35;;;;;;;2.17;0.97;;;14.20;51.60;13.80;98697.00;;;;5136418;28;20699;-70
2022/05/28 01:34:08;;;;;;;0.67;0.57;;;14.30;50.10;13.70;98701.00;;;;5136229;27;20292;-72
2022/05/28 01:36:36;;;;;;;0.77;0.77;;;14.20;50.50;13.50;98700.00;;;;5136091;28;20235;-72
2022/05/28 01:39:06;;;;;;;0.70;0.70;;;14.10;50.80;13.50;98701.00;;;;5136310;28;20197;-72
2022/05/28 01:41:39;;;;;;;0.80;0.80;;;14.10;51.00;13.50;98707.00;;;;5136192;28;20205;-72
2022/05/28 01:44:10;;;;;;;0.70;0.70;;;14.00;50.90;13.30;98713.00;;;;5136282;28;20709;-72
2022/05/28 01:46:38;;;;;;;0.80;0.80;;;13.90;50.80;13.30;98718.00;;;;5136314;28;20216;-72
2022/05/28 01:49:09;;;;;;;0.40;0.40;;;13.80;50.70;13.30;98710.00;;;;5135985;28;20225;-72
2022/05/28 01:51:47;;;;;;;1.17;1.17;;;13.90;49.80;13.30;98710.00;;;;5136168;28;20228;-71
2022/05/28 01:54:18;;;;;;;1.90;0.90;;;13.90;50.50;13.30;98713.00;;;;5136121;28;20262;-72
2022/05/28 01:56:50;;;;;;;1.20;1.07;;;13.90;48.80;13.20;98706.00;;;;5136080;28;20205;-72
2022/05/28 01:59:22;;;;;;;0.60;0.60;;;13.80;49.00;13.10;98711.00;;;;5136044;28;20196;-72
2022/05/28 02:01:49;;;;;;;0.90;0.90;;;13.70;49.30;13.10;98711.00;;;;5135886;28;20303;-72
2022/05/28 02:04:15;;;;;;;0.50;0.50;;;13.60;49.10;13.00;98709.00;;;;5135933;28;20201;-72
2022/05/28 02:06:42;;;;;;;0.60;0.60;;;13.60;49.10;13.00;98698.00;;;;5135904;28;20262;-72
2022/05/28 02:09:14;;;;;;;0.70;0.70;;;13.50;49.80;12.90;98700.00;;;;5117903;28;20213;-72
2022/05/28 02:11:58;;;;;;;1.83;1.33;;;13.50;50.20;12.90;98702.00;;;;5135786;28;20232;-72
2022/05/28 02:14:39;;;;;;;0.50;0.50;;;13.50;50.20;12.90;98701.00;;;;5135722;28;20324;-72
2022/05/28 02:17:19;;;;;;;0.90;0.90;;;13.50;49.80;12.80;98698.00;;;;5135746;28;20262;-72
2022/05/28 02:19:58;;;;;;;0.57;0.57;;;13.40;49.90;12.80;98683.00;;;;5135612;28;20663;-71
2022/05/28 02:22:37;;;;;;;4.63;1.57;;;13.40;50.40;12.90;98699.00;;;;5117421;28;20234;-72
2022/05/28 02:25:14;;;;;;;0.60;0.60;;;13.30;52.00;12.80;98702.00;;;;5135518;28;20200;-72
2022/05/28 02:27:48;;;;;;;0.70;0.70;;;13.30;50.50;12.80;98694.00;;;;5135607;28;20209;-72
2022/05/28 02:30:15;;;;;;;1.77;1.30;;;13.30;50.80;12.70;98689.00;;;;5135586;28;20185;-72
2022/05/28 02:32:42;;;;;;;0.67;0.67;;;13.30;49.60;12.70;98683.00;;;;5135462;28;20715;-72
2022/05/28 02:35:10;;;;;;;0.70;0.70;;;13.30;49.40;12.70;98679.00;;;;5135375;28;20211;-72
2022/05/28 02:37:37;;;;;;;0.80;0.80;;;13.20;49.60;12.70;98681.00;;;;5135280;28;20546;-72
2022/05/28 02:40:06;;;;;;;0.60;0.60;;;13.30;51.50;12.80;98682.00;;;;5135338;28;20261;-72
2022/05/28 02:42:32;;;;;;;5.40;1.63;;;13.30;50.00;12.80;98685.00;;;;5135234;28;20217;-72
2022/05/28 02:44:59;;;;;;;11.03;1.63;;;13.30;48.40;12.70;98681.00;;;;5135244;28;20340;-71
2022/05/28 02:47:26;;;;;;;0.50;0.50;;;13.30;49.10;12.40;98684.00;;;;5134116;27;20235;-71
2022/05/28 02:49:55;;;;;;;0.50;0.50;;;13.10;48.80;12.40;98683.00;;;;5135024;28;20220;-72
2022/05/28 02:52:22;;;;;;;0.80;0.80;;;13.00;49.00;12.30;98677.00;;;;5135105;28;20581;-72
2022/05/28 02:54:48;;;;;;;0.50;0.50;;;12.90;49.00;12.40;98684.00;;;;5135170;28;20280;-72
2022/05/28 02:57:15;;;;;;;1.43;0.90;;;12.90;49.50;12.40;98678.00;;;;5135005;28;20217;-72
2022/05/28 02:59:41;;;;;;;0.70;0.70;;;13.00;49.40;12.50;98684.00;;;;5135054;28;20194;-71
2022/05/28 03:02:07;;;;;;;0.83;0.83;;;13.00;49.90;12.40;98680.00;;;;5134862;28;20229;-72
2022/05/28 03:04:35;;;;;;;2.00;1.30;;;13.00;49.80;12.30;98676.00;;;;5134985;28;20193;-71
2022/05/28 03:07:01;;;;;;;0.83;0.83;;;12.90;49.40;12.20;98686.00;;;;5134927;28;20193;-72
2022/05/28 03:09:30;;;;;;;0.60;0.60;;;12.90;50.10;12.10;98696.00;;;;5134855;28;20664;-71
2022/05/28 03:11:57;;;;;;;0.47;0.47;;;12.80;49.50;12.10;98694.00;;;;5134877;28;20189;-70
2022/05/28 03:14:24;;;;;;;0.53;0.53;;;12.70;50.40;12.10;98697.00;;;;5134775;28;20709;-72
2022/05/28 03:16:53;;;;;;;0.60;0.60;;;12.60;50.30;11.90;98691.00;;;;5134728;28;20209;-72
2022/05/28 03:19:22;;;;;;;0.50;0.50;;;12.50;50.60;11.90;98687.00;;;;5134722;28;20197;-72
2022/05/28 03:21:50;;;;;;;0.60;0.60;;;12.50;51.30;11.70;98688.00;;;;5134601;28;20223;-72
2022/05/28 03:24:16;;;;;;;0.70;0.70;;;12.40;51.10;11.70;98693.00;;;;5134931;28;20197;-72
2022/05/28 03:26:43;;;;;;;0.67;0.67;;;12.40;51.20;11.80;98694.00;;;;5137159;28;20250;-72
2022/05/28 03:29:09;;;;;;;0.67;0.67;;;12.40;51.80;11.80;98686.00;;;;5135126;28;20210;-72
2022/05/28 03:31:36;;;;;;;0.50;0.50;;;12.30;51.90;11.70;98686.00;;;;5138897;28;20280;-72
2022/05/28 03:34:02;;;;;;;1.53;1.43;;;12.30;51.80;11.80;98703.00;;;;5136366;28;20273;-72
2022/05/28 03:36:29;;;;;;;0.70;0.70;;;12.30;52.00;11.70;98699.00;;;;5134671;28;20193;-71
2022/05/28 03:38:57;;;;;;;3.60;1.27;;;12.30;51.90;11.70;98693.00;;;;5134306;28;20224;-72
2022/05/28 03:41:27;;;;;;;0.70;0.70;;;12.30;52.20;11.60;98691.00;;;;5134453;28;20207;-71
2022/05/28 03:43:53;;;;;;;1.07;0.90;;;12.30;52.00;11.60;98703.00;;;;5116100;28;20302;-71
2022/05/28 03:46:26;;;;;;;0.50;0.50;;;12.20;52.20;11.40;98694.00;;;;5134328;28;20282;-71
2022/05/28 03:48:57;;;;;;;0.63;0.63;;;12.10;52.60;11.40;98702.00;;;;5134361;28;20189;-71
2022/05/28 03:51:24;;;;;;;0.90;0.90;;;12.10;52.80;11.40;98700.00;;;;5134247;28;20319;-71
2022/05/28 03:53:51;;;;;;;0.97;0.90;;;12.00;53.60;11.50;98678.00;;;;5134220;28;20220;-71
2022/05/28 03:56:19;;;;;;;1.03;1.03;;;12.10;53.70;11.60;98706.00;;;;5116216;28;20197;-72
2022/05/28 03:58:46;;;;;;;7.83;1.63;;;12.20;53.60;11.30;98713.00;;;;5136367;27;20209;-72
2022/05/28 04:01:14;;;;;;;0.60;0.60;;;12.00;53.30;11.20;98713.00;;;;5137827;28;20205;-71
2022/05/28 04:03:41;;;;;;;0.57;0.57;;;11.90;53.70;11.10;98714.00;;;;5137649;28;20224;-70
2022/05/28 04:06:11;;;;;;;3.30;1.10;;;11.80;53.90;11.10;98720.00;;;;5137756;28;20651;-72
2022/05/28 04:08:37;;;;;;;0.50;0.50;;;11.80;54.40;11.00;98717.00;;;;5137626;28;20201;-71
2022/05/28 04:11:06;;;;;;;0.57;0.57;;;11.70;54.40;11.00;98719.00;;;;5137723;28;20201;-71
2022/05/28 04:13:34;;;;;;;0.40;0.40;;;11.70;54.90;11.10;98720.00;;;;5137485;28;20671;-72
2022/05/28 04:16:01;;;;;;;0.50;0.50;;;11.70;55.20;11.00;98723.00;;;;5137683;28;20296;-71
2022/05/28 04:18:30;;;;;;;0.50;0.50;;;11.70;54.90;11.10;98722.00;;;;5137454;28;20284;-71
2022/05/28 04:20:56;;;;;;;1.20;0.90;;;11.70;55.10;11.10;98726.00;;;;5137528;28;20193;-72
2022/05/28 04:23:23;;;;;;;1.10;1.10;;;11.70;55.10;11.10;98728.00;;;;5137343;28;20269;-73
2022/05/28 04:25:50;;;;;;;0.90;0.90;;;11.80;54.70;11.20;98727.00;;;;5137406;28;20280;-72
2022/05/28 04:28:16;;;;;;;1.03;1.03;;;11.80;54.90;11.10;98732.00;;;;5137332;28;20221;-72
2022/05/28 04:30:43;;;;;;;2.20;1.53;;;11.80;54.20;11.00;98726.00;;;;5137361;28;20198;-72
2022/05/28 04:33:10;;;;;;;2.17;1.13;;;11.70;54.40;11.00;98733.00;;;;5137382;28;20186;-72
2022/05/28 04:35:39;;;;;;;0.83;0.83;;;11.70;54.80;11.00;98733.00;;;;5137141;28;20624;-73
2022/05/28 04:38:06;;;;;;;0.90;0.90;;;11.60;55.00;11.10;98734.00;;;;5137169;28;20208;-72
2022/05/28 04:40:32;;;;;;;0.83;0.83;;;11.70;55.70;11.00;98741.00;;;;5137227;28;20213;-72
2022/05/28 04:42:59;;;;;;;1.10;1.10;;;11.60;55.00;11.00;98731.00;;;;5137029;28;20365;-72
2022/05/28 04:45:28;;;;;;;0.60;0.60;;;11.60;54.90;11.00;98740.00;;;;5137044;28;20260;-72
2022/05/28 04:47:55;;;;;;;0.50;0.50;;;11.70;54.90;11.20;98742.00;;;;5118955;28;20284;-73
2022/05/28 04:50:22;;;;;;;0.57;0.57;;;11.70;55.80;11.20;98733.00;;;;5137054;28;20186;-73
2022/05/28 04:52:48;;;;;;;0.60;0.60;;;11.80;55.00;11.20;98738.00;;;;5136935;28;20221;-73
2022/05/28 04:55:15;;;;;;;1.77;1.67;;;11.70;54.80;11.20;98741.00;;;;5119187;28;20232;-73
2022/05/28 04:57:42;;;;;;;0.60;0.60;;;11.80;55.00;11.20;98745.00;;;;5136936;28;20218;-73
2022/05/28 05:00:14;;;;;;;1.00;1.00;;;11.80;54.90;11.40;98731.00;;;;5136837;28;20201;-72
2022/05/28 05:02:41;;;;;;;0.90;0.90;;;11.90;55.50;11.40;98745.00;;;;5136697;28;20217;-73
2022/05/28 05:05:09;;;;;;;2.77;1.67;;;11.90;54.70;11.50;98731.00;;;;5136776;28;20213;-73
2022/05/28 05:07:36;;;;;;;0.50;0.50;;;12.00;54.80;11.70;98743.00;;;;5136725;28;20204;-73
2022/05/28 05:10:04;;;;;;;0.60;0.60;;;12.20;54.70;11.60;98739.00;;;;5135692;27;20276;-72
2022/05/28 05:12:31;;;;;;;0.50;0.50;;;12.20;53.80;11.90;98744.00;;;;5136685;28;20205;-73
2022/05/28 05:14:57;;;;;;;0.47;0.47;;;12.30;54.20;11.90;98745.00;;;;5136786;28;20236;-73
2022/05/28 05:17:24;;;;;;;0.70;0.70;;;12.40;53.50;11.90;98746.00;;;;5136746;28;20225;-72
2022/05/28 05:19:53;;;;;;;0.60;0.60;;;12.40;54.70;12.00;98740.00;;;;5136603;28;20201;-72
2022/05/28 05:22:23;;;;;;;0.60;0.60;;;12.50;53.00;12.10;98751.00;;;;5136660;28;20218;-73
2022/05/28 05:24:52;;;;;;;0.50;0.50;;;12.60;52.40;12.10;98740.00;;;;5118742;28;20288;-73
2022/05/28 05:27:19;;;;;;;0.70;0.70;;;12.60;51.90;12.10;98734.00;;;;5136498;28;20194;-72
2022/05/28 05:29:48;;;;;;;0.50;0.50;;;12.60;51.40;12.00;98750.00;;;;5136420;28;20691;-72
2022/05/28 05:32:15;;;;;;;1.07;1.07;;;12.60;51.10;12.10;98754.00;;;;5136480;28;20201;-73
2022/05/28 05:34:45;;;;;;;1.80;1.43;;;12.60;51.80;12.00;98745.00;;;;5136438;28;20277;-73
2022/05/28 05:37:12;;;;;;;1.47;1.37;;;12.60;50.80;12.00;98747.00;;;;5136331;28;20232;-73
2022/05/28 05:39:39;;;;;;;0.60;0.60;;;12.60;50.60;12.20;98751.00;;;;5136344;28;20201;-73
2022/05/28 05:42:06;;;;;;;0.50;0.50;;;12.70;50.80;12.10;98754.00;;;;5136255;28;20525;-73
2022/05/28 05:44:33;;;;;;;1.03;0.93;;;12.70;49.10;12.20;98764.00;;;;5136278;28;20196;-73
2022/05/28 05:47:03;;;;;;;0.50;0.50;;;12.60;49.10;12.10;98756.00;;;;5136168;28;20198;-73
2022/05/28 05:49:29;;;;;;;0.40;0.40;;;12.60;48.70;12.00;98763.00;;;;5136246;28;20207;-73
2022/05/28 05:51:59;;;;;;;0.50;0.50;;;12.50;48.90;12.00;98760.00;;;;5136135;28;20317;-73
2022/05/28 05:54:28;;;;;;;2.87;1.13;;;12.50;49.60;12.20;98766.00;;;;5135968;28;20221;-73
2022/05/28 05:56:57;;;;;;;0.80;0.80;;;12.60;50.30;12.20;98771.00;;;;5136067;28;20209;-72
2022/05/28 05:59:24;;;;;;;0.40;0.40;;;12.70;50.00;12.30;98759.00;;;;5135775;28;20254;-72
2022/05/28 06:01:50;;;;;;;0.57;0.57;;;12.80;49.10;12.10;98757.00;;;;5136268;28;20229;-73
2022/05/28 06:04:20;;;;;;;0.50;0.50;;;12.70;49.10;12.20;98769.00;;;;5136125;28;20209;-73
2022/05/28 06:06:47;;;;;;;0.60;0.60;;;12.80;50.00;12.30;98773.00;;;;5135681;28;20225;-73
2022/05/28 06:09:15;;;;;;;0.80;0.80;;;12.80;49.90;12.40;98767.00;;;;5135903;28;20205;-72
2022/05/28 06:11:41;;;;;;;1.77;1.00;;;12.90;49.40;12.20;98772.00;;;;5135617;28;20598;-73
2022/05/28 06:14:08;;;;;;;7.40;1.43;;;12.80;50.00;12.20;98766.00;;;;5135916;28;20209;-73
2022/05/28 06:16:37;;;;;;;1.70;1.27;;;12.70;49.10;12.20;98764.00;;;;5135656;28;20197;-73
2022/05/28 06:19:05;;;;;;;0.60;0.60;;;12.80;49.30;12.50;98770.00;;;;5135631;28;20228;-73
2022/05/28 06:21:32;;;;;;;0.50;0.50;;;12.90;49.40;12.30;98766.00;;;;5135556;27;20197;-73
2022/05/28 06:24:00;;;;;;;0.47;0.47;;;12.90;48.30;12.50;98764.00;;;;5135394;28;20227;-73
2022/05/28 06:26:26;;;;;;;0.80;0.80;;;13.00;48.00;12.40;98766.00;;;;5135568;28;20303;-73
2022/05/28 06:28:53;;;;;;;0.50;0.50;;;13.00;48.10;12.40;98771.00;;;;5135361;28;20724;-73
2022/05/28 06:31:21;;;;;;;0.70;0.70;;;13.00;48.20;12.60;98773.00;;;;5135308;28;20300;-73
2022/05/28 06:33:47;;;;;;;0.50;0.50;;;13.10;45.60;12.50;98774.00;;;;5135343;28;20189;-73
2022/05/28 06:36:14;;;;;;;0.43;0.43;;;13.10;46.10;12.60;98774.00;;;;5135328;28;20277;-73
2022/05/28 06:38:41;;;;;;;0.80;0.80;;;13.10;45.80;12.80;98776.00;;;;5135300;28;20667;-73
2022/05/28 06:41:08;;;;;;;0.70;0.70;;;13.30;45.90;12.60;98773.00;;;;5135324;28;20297;-73
2022/05/28 06:43:35;;;;;;;0.50;0.50;;;13.20;45.00;12.70;98770.00;;;;5135123;28;20619;-72
2022/05/28 06:46:07;;;;;;;0.50;0.50;;;13.20;45.00;12.60;98785.00;;;;5135177;28;20193;-72
2022/05/28 06:48:36;;;;;;;0.70;0.70;;;13.10;45.70;12.60;98769.00;;;;5135495;28;20201;-72
2022/05/28 06:51:03;;;;;;;0.60;0.60;;;13.20;44.70;12.60;98773.00;;;;5117049;28;20243;-73
2022/05/28 06:53:36;;;;;;;0.50;0.50;;;13.10;44.70;12.60;98781.00;;;;5135131;28;20249;-73
2022/05/28 06:56:04;;;;;;;0.77;0.77;;;13.20;45.80;12.70;98774.00;;;;5134963;28;20301;-72
2022/05/28 06:58:30;;;;;;;0.40;0.40;;;13.20;45.60;12.70;98772.00;;;;5134949;28;20200;-72
2022/05/28 07:00:57;;;;;;;0.57;0.57;;;13.20;45.40;12.80;98760.00;;;;5134892;28;20248;-73
2022/05/28 07:03:26;;;;;;;0.77;0.77;;;13.30;45.20;12.90;98780.00;;;;5134821;28;20217;-73
2022/05/28 07:05:54;;;;;;;0.90;0.90;;;13.40;45.60;13.00;98777.00;;;;5134903;28;20193;-72
2022/05/28 07:08:21;;;;;;;0.50;0.50;;;13.50;46.20;13.10;98772.00;;;;5134742;28;20248;-73
2022/05/28 07:10:50;;;;;;;0.90;0.90;;;13.50;45.40;13.00;98768.00;;;;5134749;28;20288;-72
2022/05/28 07:13:20;;;;;;;1.53;1.43;;;13.60;45.60;13.20;98770.00;;;;5116884;28;20221;-72
2022/05/28 07:15:46;;;;;;;1.30;1.20;;;13.70;46.00;13.10;98772.00;;;;5134874;28;20221;-73
2022/05/28 07:18:14;;;;;;;0.53;0.53;;;13.70;43.00;12.90;98763.00;;;;5116617;28;20229;-73
2022/05/28 07:20:44;;;;;;;0.60;0.60;;;13.40;44.10;12.80;98761.00;;;;5134697;28;20324;-73
2022/05/28 07:23:14;;;;;;;0.50;0.50;;;13.40;45.40;12.90;98762.00;;;;5134541;28;20548;-73
2022/05/28 07:25:43;;;;;;;1.17;0.70;;;13.40;44.90;13.10;98756.00;;;;5134671;28;20281;-73
2022/05/28 07:28:26;;;;;;;0.50;0.50;;;13.60;44.80;13.30;98762.00;;;;5134740;28;20193;-73
2022/05/28 07:30:53;;;;;;;0.70;0.70;;;13.70;44.00;13.40;98755.00;;;;5134696;28;20279;-72
2022/05/28 07:33:24;;;;;;;0.60;0.60;;;13.80;42.70;13.40;98753.00;;;;5133874;27;20209;-73
2022/05/28 07:35:52;;;;;;;0.50;0.50;;;13.80;43.30;13.70;98738.00;;;;5116419;28;20632;-73
2022/05/28 07:38:19;;;;;;;0.97;0.97;;;14.00;43.00;13.70;98736.00;;;;5134418;28;20228;-74
2022/05/28 07:40:46;;;;;;;0.70;0.70;;;14.20;41.50;13.60;98746.00;;;;5134383;28;20208;-73
2022/05/28 07:43:13;;;;;;;2.20;1.27;;;14.10;42.40;13.70;98746.00;;;;5134268;28;20243;-72
2022/05/28 07:45:43;;;;;;;1.10;1.00;;;14.20;43.00;13.80;98743.00;;;;5134457;28;20193;-73
2022/05/28 07:48:10;;;;;;;1.37;1.33;;;14.20;43.80;13.90;98745.00;;;;5134360;28;20282;-73
2022/05/28 07:50:39;;;;;;;0.70;0.70;;;14.20;43.30;14.10;98747.00;;;;5116041;28;20232;-73
2022/05/28 07:53:07;;;;;;;0.60;0.60;;;14.50;41.60;14.10;98749.00;;;;5134261;28;20254;-73
2022/05/28 07:55:35;;;;;;;0.50;0.50;;;14.50;42.40;14.30;98732.00;;;;5134266;28;20201;-72
2022/05/28 07:58:07;;;;;;;0.40;0.40;;;14.70;42.00;14.60;98734.00;;;;5134277;28;20280;-73
2022/05/28 08:00:39;;;;;;;0.50;0.50;;;14.80;40.90;14.80;98736.00;;;;5134176;28;20266;-73
2022/05/28 08:03:06;;;;;;;0.93;0.73;;;15.10;40.40;14.90;98729.00;;;;5134130;28;20365;-73
2022/05/28 08:05:33;;;;;;;1.47;1.37;;;15.20;41.10;14.60;98728.00;;;;5138127;28;20337;-73
2022/05/28 08:08:00;;;;;;;0.57;0.57;;;;;14.60;98736.00;;;;5137079;28;20244;-72
2022/05/28 08:10:26;;;;;;;0.73;0.73;;;15.10;40.50;14.80;98732.00;;;;5134307;28;20304;-73
2022/05/28 08:12:53;;;;;;;0.50;0.50;;;15.10;40.70;14.70;98730.00;;;;5134147;28;20190;-73
2022/05/28 08:15:20;;;;;;;0.50;0.50;;;15.20;40.00;14.90;98725.00;;;;5134055;28;20225;-73
2022/05/28 08:17:47;;;;;;;0.60;0.60;;;15.30;40.20;15.10;98729.00;;;;5115999;28;20201;-73
2022/05/28 08:20:13;;;;;;;0.60;0.60;;;15.50;38.90;15.10;98718.00;;;;5134077;28;20193;-73
2022/05/28 08:25:25;;;;;;;1.03;1.03;;;15.50;39.10;15.20;98725.00;;;;5115882;28;20206;-73
2022/05/28 08:27:51;;;;;;;0.70;0.70;;;15.60;39.30;15.30;98724.00;;;;5133973;28;20224;-71
2022/05/28 08:30:18;;;;;;;2.50;0.70;;;15.70;40.10;15.30;98730.00;;;;5115851;28;20222;-73
2022/05/28 08:32:45;;;;;;;0.40;0.40;;;15.70;39.00;15.30;98726.00;;;;5133795;28;20205;-75
2022/05/28 08:35:11;;;;;;;0.40;0.40;;;15.60;38.60;15.20;98730.00;;;;5133903;28;20306;-72
2022/05/28 08:37:38;;;;;;;0.63;0.60;;;15.60;38.50;15.10;98723.00;;;;5133864;28;20531;-72
2022/05/28 08:40:06;;;;;;;0.57;0.57;;;15.60;38.30;15.30;98719.00;;;;5133712;28;20290;-72
2022/05/28 08:42:36;;;;;;;2.03;1.17;;;15.60;38.80;15.30;98718.00;;;;5133684;28;20225;-71
2022/05/28 08:45:08;;;;;;;0.50;0.50;;;15.70;37.90;15.20;98718.00;;;;5134700;27;20219;-73
2022/05/28 08:47:43;;;;;;;0.50;0.50;;;15.60;38.30;15.20;98710.00;;;;5137168;28;20239;-73
2022/05/28 08:50:11;;;;;;;0.50;0.50;;;15.60;38.60;15.20;98711.00;;;;5137325;28;20196;-73
2022/05/28 08:52:46;;;;;;;0.80;0.80;;;15.70;36.50;15.30;98712.00;;;;5136961;28;20225;-72
2022/05/28 08:55:17;;;;;;;0.50;0.50;;;15.60;36.80;15.20;98715.00;;;;5137081;28;20587;-73
2022/05/28 08:57:54;;;;;;;0.40;0.40;;;15.60;37.10;15.40;98708.00;;;;5137033;28;20225;-73
2022/05/28 09:00:38;;;;;;;0.40;0.40;;;15.80;37.50;15.70;98711.00;;;;5137010;28;20204;-73
2022/05/28 09:03:13;;;;;;;1.30;0.87;;;15.90;37.90;15.90;98696.00;;;;5118818;28;20247;-73
2022/05/28 09:05:50;;;;;;;0.63;0.63;;;16.30;35.40;15.90;98699.00;;;;5136849;28;20221;-73
2022/05/28 09:08:28;;;;;;;0.63;0.63;;;16.20;35.80;16.20;98706.00;;;;5136820;28;20208;-73
2022/05/28 09:10:59;;;;;;;0.60;0.60;;;16.40;36.40;16.00;98707.00;;;;5136967;28;20250;-73
2022/05/28 09:13:36;;;;;;;0.70;0.70;;;16.40;35.90;16.10;98713.00;;;;5136746;28;20200;-73
2022/05/28 09:16:12;;;;;;;0.70;0.70;;;16.50;35.70;16.20;98706.00;;;;5136729;28;20212;-73
2022/05/28 09:18:42;;;;;;;0.60;0.60;;;16.70;35.10;16.50;98702.00;;;;5118692;28;20197;-76
2022/05/28 09:21:15;;;;;;;0.80;0.80;;;16.80;34.70;16.40;98702.00;;;;5136689;28;20200;-75
2022/05/28 09:23:48;;;;;;;0.40;0.40;;;16.90;34.30;16.60;98700.00;;;;5136454;28;20251;-75
2022/05/28 09:26:36;;;;;;;1.03;0.93;;;16.90;35.10;16.80;98709.00;;;;5136583;28;20518;-74
2022/05/28 09:29:20;;;;;;;1.90;0.93;;;17.10;34.90;17.00;98707.00;;;;5136745;28;20229;-75
2022/05/28 09:32:03;;;;;;;0.47;0.47;;;17.40;33.80;16.90;98697.00;;;;5136777;28;20254;-76
2022/05/28 09:34:47;;;;;;;0.60;0.60;;;17.40;33.00;16.80;98695.00;;;;5143977;28;20289;-73
2022/05/28 09:37:34;;;;;;;0.60;0.60;;;17.30;34.00;16.60;98699.00;;;;5141629;28;20517;-74
2022/05/28 09:40:12;;;;;;;0.67;0.67;;;17.10;34.50;16.60;98695.00;;;;5136572;28;20189;-73
2022/05/28 09:43:10;;;;;;;0.60;0.60;;;17.00;34.20;16.50;98686.00;;;;5136215;28;20256;-72
2022/05/28 09:45:52;;;;;;;0.50;0.50;;;16.90;34.90;16.60;98683.00;;;;5136239;28;20288;-73
2022/05/28 09:48:22;;;;;;;0.40;0.40;;;17.00;34.80;16.90;98671.00;;;;5136036;28;20307;-72
2022/05/28 09:50:52;;;;;;;0.70;0.70;;;17.20;34.60;17.00;98678.00;;;;5117917;28;20205;-76
2022/05/28 09:56:24;;;;;;;4.63;1.00;;;17.50;32.90;17.10;98667.00;;;;5102279;27;20300;-76
2022/05/28 09:58:54;;;;;;;0.50;0.50;;;17.70;32.80;17.40;98673.00;;;;5136182;28;20220;-80
2022/05/28 10:01:25;;;;;;;0.40;0.40;;;17.70;33.60;17.60;98670.00;;;;5136030;28;20296;-78
2022/05/28 10:06:53;;;;;;;0.50;0.50;;;18.00;31.90;17.50;98673.00;;;;5135938;28;20609;-76
2022/05/28 10:09:26;;;;;;;1.20;0.73;;;18.00;32.50;17.40;98680.00;;;;5136062;28;20205;-77
2022/05/28 10:11:55;;;;;;;0.60;0.60;;;17.90;33.00;17.10;98685.00;;;;5135994;28;20224;-76
2022/05/28 10:14:24;;;;;;;0.40;0.40;;;17.80;33.20;17.00;98681.00;;;;5135843;28;20236;-76
2022/05/28 10:16:59;;;;;;;0.40;0.40;;;17.60;33.50;17.10;98684.00;;;;5135776;28;20205;-77
2022/05/28 10:19:39;;;;;;;0.47;0.47;;;17.50;32.70;17.00;98683.00;;;;5117794;28;20208;-78
2022/05/28 10:22:16;;;;;;;0.60;0.60;;;17.40;31.50;17.10;98671.00;;;;5135718;28;20224;-75
2022/05/28 10:24:48;;;;;;;0.50;0.50;;;17.70;32.10;17.50;98669.00;;;;5135999;28;20178;-75
2022/05/28 10:27:31;;;;;;;1.03;0.93;;;18.00;31.30;17.90;98673.00;;;;5135572;28;20223;-75
2022/05/28 10:30:07;;;;;;;0.60;0.60;;;18.00;32.00;17.70;98672.00;;;;5135593;28;20190;-75
2022/05/28 10:32:38;;;;;;;0.97;0.70;;;18.10;31.40;18.00;98670.00;;;;5135485;28;20224;-74
2022/05/28 10:35:15;;;;;;;0.60;0.60;;;18.30;31.20;18.20;98651.00;;;;5135381;28;20210;-75
2022/05/28 10:37:43;;;;;;;0.50;0.50;;;18.50;29.90;18.40;98656.00;;;;5135352;28;20283;-74
2022/05/28 10:40:20;;;;;;;0.30;0.30;;;18.60;30.00;18.60;98659.00;;;;5135330;28;20221;-76
2022/05/28 10:42:48;;;;;;;0.57;0.57;;;18.90;28.80;18.40;98652.00;;;;5135187;28;20239;-74
2022/05/28 10:45:19;;;;;;;0.70;0.70;;;18.80;27.50;18.10;98648.00;;;;5135077;28;20223;-73
2022/05/28 10:48:19;;;;;;;0.40;0.40;;;18.60;27.90;18.20;98659.00;;;;5135266;28;20193;-74
2022/05/28 10:51:00;;;;;;;0.50;0.50;;;18.60;28.90;18.40;98653.00;;;;5116826;28;20232;-73
2022/05/28 10:54:03;;;;;;;0.40;0.40;;;18.70;30.20;18.50;98661.00;;;;5135134;28;20243;-75
2022/05/28 10:56:52;;;;;;;0.67;0.67;;;18.70;30.00;18.60;98650.00;;;;5135039;28;20231;-74
2022/05/28 11:00:00;;;;;;;1.90;1.03;;;18.90;29.20;18.50;98661.00;;;;5135152;28;20197;-74
2022/05/28 11:03:22;;;;;;;0.87;0.87;;;;;18.60;98649.00;;;;5134808;28;20240;-74
2022/05/28 11:06:28;;;;;;;0.40;0.40;;;19.00;28.00;18.90;98641.00;;;;5135009;28;20200;-73
2022/05/28 11:09:08;;;;;;;0.50;0.50;;;19.10;28.60;18.60;98646.00;;;;5133946;27;20197;-73
2022/05/28 11:11:53;;;;;;;0.40;0.40;;;18.90;29.00;18.80;98635.00;;;;5134875;28;20312;-74
2022/05/28 11:14:57;;;;;;;0.60;0.60;;;19.00;28.80;19.40;98627.00;;;;5134802;28;20223;-75
2022/05/28 11:17:43;;;;;;;0.40;0.40;;;19.50;29.10;19.80;98629.00;;;;5134973;28;20231;-74
2022/05/28 11:20:28;;;;;;;0.40;0.40;;;19.90;29.30;19.60;98631.00;;;;5134838;28;20237;-72